createdAt,value
2023-04-21T00:00:27.249Z,10.50
2023-04-21T00:02:54.408Z,10.39
2023-04-21T00:05:21.771Z,10.43
2023-04-21T00:07:48.871Z,10.39
2023-04-21T00:10:15.995Z,10.35
2023-04-21T00:12:43.032Z,10.24
2023-04-21T00:15:11.289Z,10.17
2023-04-21T00:17:38.290Z,10.22
2023-04-21T00:20:07.228Z,10.20
2023-04-21T00:22:34.158Z,10.28
2023-04-21T00:25:01.110Z,10.23
2023-04-21T00:27:31.512Z,10.18
2023-04-21T00:29:58.465Z,10.30
2023-04-21T00:32:25.551Z,10.06
2023-04-21T00:34:52.878Z,10.31
2023-04-21T00:37:19.866Z,9.93
2023-04-21T00:39:47.149Z,10.30
2023-04-21T00:42:17.069Z,10.22
2023-04-21T00:44:44.437Z,10.26
2023-04-21T00:47:11.718Z,10.24
2023-04-21T00:49:38.894Z,10.23
2023-04-21T00:52:06.546Z,10.25
2023-04-21T00:54:35.701Z,10.26
2023-04-21T00:57:03.840Z,10.11
2023-04-21T00:59:31.185Z,10.21
2023-04-21T01:01:58.321Z,10.09
2023-04-21T01:04:25.778Z,10.11
2023-04-21T01:06:52.958Z,10.10
2023-04-21T01:09:21.270Z,10.11
2023-04-21T01:12:04.130Z,9.96
2023-04-21T01:14:34.241Z,9.97
2023-04-21T01:17:01.453Z,10.06
2023-04-21T01:19:31.432Z,9.30
2023-04-21T01:22:00.740Z,10.04
2023-04-21T01:24:45.014Z,10.02
2023-04-21T01:27:16.557Z,9.94
2023-04-21T01:29:43.845Z,9.93
2023-04-21T01:32:13.575Z,9.96
2023-04-21T01:34:43.125Z,9.97
2023-04-21T01:37:13.580Z,9.89
2023-04-21T01:39:52.098Z,9.91
2023-04-21T01:42:19.427Z,9.95
2023-04-21T01:44:47.092Z,9.96
2023-04-21T01:47:18.627Z,9.95
2023-04-21T01:49:46.603Z,9.96
2023-04-21T01:52:13.461Z,9.31
2023-04-21T01:54:40.820Z,9.76
2023-04-21T01:57:08.114Z,9.89
2023-04-21T01:59:35.618Z,9.85
2023-04-21T02:02:03.468Z,9.69
2023-04-21T02:04:34.040Z,9.76
2023-04-21T02:07:01.215Z,9.75
2023-04-21T02:09:28.401Z,9.69
2023-04-21T02:11:57.172Z,9.63
2023-04-21T02:14:25.996Z,9.46
2023-04-21T02:16:53.569Z,9.44
2023-04-21T02:19:21.004Z,9.42
2023-04-21T02:21:48.144Z,9.39
2023-04-21T02:24:15.222Z,9.36
2023-04-21T02:26:42.307Z,9.35
2023-04-21T02:29:09.398Z,9.37
2023-04-21T02:31:53.789Z,9.50
2023-04-21T02:34:26.451Z,9.65
2023-04-21T02:36:53.523Z,9.57
2023-04-21T02:39:21.124Z,9.93
2023-04-21T02:41:48.389Z,10.02
2023-04-21T02:44:15.360Z,9.80
2023-04-21T02:46:43.324Z,10.22
2023-04-21T02:49:10.980Z,10.34
2023-04-21T02:51:37.917Z,10.25
2023-04-21T02:54:05.433Z,10.52
2023-04-21T02:56:36.802Z,10.48
2023-04-21T02:59:04.978Z,10.66
2023-04-21T03:01:31.934Z,10.37
2023-04-21T03:04:01.502Z,10.68
2023-04-21T03:06:28.778Z,10.74
2023-04-21T03:08:56.849Z,10.72
2023-04-21T03:11:24.258Z,10.62
2023-04-21T03:14:02.915Z,10.81
2023-04-21T03:16:30.209Z,10.89
2023-04-21T03:18:57.209Z,10.75
2023-04-21T03:21:25.442Z,10.57
2023-04-21T03:23:53.037Z,10.71
2023-04-21T03:26:20.853Z,10.83
2023-04-21T03:28:48.275Z,10.76
2023-04-21T03:31:15.327Z,10.90
2023-04-21T03:33:42.617Z,10.87
2023-04-21T03:36:10.330Z,10.91
2023-04-21T03:38:38.884Z,11.09
2023-04-21T03:41:06.119Z,11.16
2023-04-21T03:43:33.345Z,11.19
2023-04-21T03:46:00.322Z,11.13
2023-04-21T03:48:28.847Z,11.20
2023-04-21T03:50:55.878Z,11.02
2023-04-21T03:53:23.132Z,10.96
2023-04-21T03:55:50.902Z,10.94
2023-04-21T03:58:18.589Z,11.03
2023-04-21T04:00:45.489Z,10.88
2023-04-21T04:03:12.784Z,9.52
2023-04-21T04:05:40.126Z,11.16
2023-04-21T04:08:07.383Z,11.23
2023-04-21T04:10:34.673Z,11.27
2023-04-21T04:13:01.579Z,11.22
2023-04-21T04:15:28.691Z,11.27
2023-04-21T04:17:55.954Z,11.44
2023-04-21T04:20:23.293Z,11.45
2023-04-21T04:22:50.581Z,11.58
2023-04-21T04:25:17.450Z,11.33
2023-04-21T04:27:45.100Z,11.64
2023-04-21T04:30:13.529Z,11.70
2023-04-21T04:32:41.614Z,11.64
2023-04-21T04:35:10.294Z,11.65
2023-04-21T04:37:37.728Z,11.80
2023-04-21T04:40:17.604Z,11.89
2023-04-21T04:42:47.027Z,11.91
2023-04-21T04:45:14.038Z,12.12
2023-04-21T04:47:41.100Z,12.06
2023-04-21T04:50:08.632Z,12.13
2023-04-21T04:52:35.770Z,12.39
2023-04-21T04:55:02.866Z,12.33
2023-04-21T04:57:31.701Z,12.06
2023-04-21T04:59:58.894Z,12.39
2023-04-21T05:02:26.021Z,12.33
2023-04-21T05:04:53.498Z,12.57
2023-04-21T05:07:20.876Z,12.73
2023-04-21T05:09:47.957Z,12.77
2023-04-21T05:12:14.862Z,12.84
2023-04-21T05:14:41.945Z,12.77
2023-04-21T05:17:09.065Z,12.97
2023-04-21T05:19:37.590Z,12.95
2023-04-21T05:22:06.610Z,12.79
2023-04-21T05:24:34.682Z,13.04
2023-04-21T05:27:03.115Z,13.20
2023-04-21T05:29:31.226Z,13.31
2023-04-21T05:31:58.397Z,13.28
2023-04-21T05:34:25.421Z,13.51
2023-04-21T05:36:52.666Z,13.55
2023-04-21T05:39:19.691Z,13.65
2023-04-21T05:41:46.798Z,13.79
2023-04-21T05:44:13.839Z,13.69
2023-04-21T05:46:41.010Z,13.83
2023-04-21T05:49:08.328Z,13.56
2023-04-21T05:51:35.393Z,13.53
2023-04-21T05:54:02.383Z,13.31
2023-04-21T05:56:29.289Z,13.23
2023-04-21T05:58:56.584Z,13.09
2023-04-21T06:01:23.491Z,12.98
2023-04-21T06:03:50.648Z,12.99
2023-04-21T06:06:18.194Z,13.20
2023-04-21T06:08:45.293Z,13.24
2023-04-21T06:11:12.571Z,13.24
2023-04-21T06:13:41.101Z,13.25
2023-04-21T06:16:10.012Z,13.26
2023-04-21T06:18:37.000Z,13.34
2023-04-21T06:21:04.561Z,13.40
2023-04-21T06:23:31.533Z,13.42
2023-04-21T06:26:00.517Z,13.47
2023-04-21T06:28:27.540Z,13.71
2023-04-21T06:30:54.608Z,13.91
2023-04-21T06:33:21.617Z,14.16
2023-04-21T06:35:48.606Z,14.02
2023-04-21T06:38:15.963Z,13.81
2023-04-21T06:40:43.275Z,13.82
2023-04-21T06:43:10.358Z,13.90
2023-04-21T06:45:37.580Z,14.13
2023-04-21T06:48:05.074Z,14.20
2023-04-21T06:50:32.236Z,14.28
2023-04-21T06:52:59.238Z,14.48
2023-04-21T06:55:26.583Z,14.46
2023-04-21T06:57:53.619Z,14.18
2023-04-21T07:00:21.224Z,14.16
2023-04-21T07:02:48.356Z,14.16
2023-04-21T07:05:15.818Z,14.65
2023-04-21T07:07:42.791Z,14.83
2023-04-21T07:10:10.144Z,14.98
2023-04-21T07:12:37.108Z,14.92
2023-04-21T07:15:04.969Z,14.77
2023-04-21T07:17:32.601Z,14.55
2023-04-21T07:19:59.699Z,14.64
2023-04-21T07:22:26.789Z,14.96
2023-04-21T07:24:53.789Z,15.25
2023-04-21T07:27:20.817Z,15.73
2023-04-21T07:29:47.912Z,16.21
2023-04-21T07:32:14.758Z,16.27
2023-04-21T07:34:41.893Z,16.34
2023-04-21T07:37:09.135Z,15.94
2023-04-21T07:39:36.275Z,15.73
2023-04-21T07:42:03.325Z,15.30
2023-04-21T07:44:30.533Z,15.11
2023-04-21T07:46:57.484Z,15.01
2023-04-21T07:49:24.452Z,15.08
2023-04-21T07:51:52.066Z,15.16
2023-04-21T07:54:19.082Z,14.92
2023-04-21T07:56:46.364Z,15.89
2023-04-21T07:59:13.333Z,16.22
2023-04-21T08:01:40.805Z,16.69
2023-04-21T08:04:07.870Z,16.23
2023-04-21T08:06:35.077Z,16.84
2023-04-21T08:09:02.541Z,17.38
2023-04-21T08:11:29.456Z,17.69
2023-04-21T08:13:57.725Z,17.79
2023-04-21T08:16:24.833Z,17.90
2023-04-21T08:18:51.869Z,17.66
2023-04-21T08:21:19.867Z,17.55
2023-04-21T08:23:47.077Z,17.68
2023-04-21T08:26:14.198Z,18.03
2023-04-21T08:28:42.425Z,17.87
2023-04-21T08:31:09.522Z,17.73
2023-04-21T08:33:41.337Z,17.53
2023-04-21T08:36:26.010Z,17.13
2023-04-21T08:38:56.349Z,17.16
2023-04-21T08:41:24.376Z,16.98
2023-04-21T08:43:51.861Z,17.26
2023-04-21T08:46:19.398Z,16.64
2023-04-21T08:48:47.668Z,16.45
2023-04-21T08:51:24.699Z,16.30
2023-04-21T08:53:52.217Z,16.24
2023-04-21T08:56:19.442Z,16.25
2023-04-21T08:58:46.531Z,16.26
2023-04-21T09:01:13.836Z,16.18
2023-04-21T09:03:41.031Z,16.25
2023-04-21T09:06:09.941Z,16.63
2023-04-21T09:08:40.009Z,16.88
2023-04-21T09:11:07.080Z,16.90
2023-04-21T09:13:36.468Z,17.46
2023-04-21T09:16:16.746Z,17.98
2023-04-21T09:18:44.694Z,17.69
2023-04-21T09:21:13.977Z,17.50
2023-04-21T09:23:51.684Z,17.57
2023-04-21T09:26:23.034Z,17.24
2023-04-21T09:28:53.178Z,17.53
2023-04-21T09:31:24.768Z,17.91
2023-04-21T09:33:59.491Z,18.09
2023-04-21T09:36:30.778Z,18.20
2023-04-21T09:41:33.037Z,18.01
2023-04-21T09:44:01.653Z,18.56
2023-04-21T09:46:32.710Z,19.22
2023-04-21T09:49:04.604Z,19.73
2023-04-21T09:51:56.150Z,19.90
2023-04-21T09:54:29.745Z,19.44
2023-04-21T09:57:03.842Z,19.39
2023-04-21T09:59:37.229Z,19.28
2023-04-21T10:02:08.411Z,19.50
2023-04-21T10:04:38.353Z,19.45
2023-04-21T10:07:06.704Z,19.37
2023-04-21T10:09:40.536Z,19.04
2023-04-21T10:12:09.799Z,18.94
2023-04-21T10:14:37.425Z,18.99
2023-04-21T10:17:10.187Z,18.82
2023-04-21T10:19:47.814Z,18.73
2023-04-21T10:22:14.854Z,18.56
2023-04-21T10:24:43.279Z,18.48
2023-04-21T10:27:32.106Z,17.85
2023-04-21T10:29:59.944Z,17.63
2023-04-21T10:32:41.802Z,17.69
2023-04-21T10:35:14.890Z,17.84
2023-04-21T10:37:44.687Z,18.00
2023-04-21T10:40:43.722Z,18.60
2023-04-21T10:43:48.137Z,18.62
2023-04-21T10:46:35.564Z,18.29
2023-04-21T10:49:09.183Z,18.63
2023-04-21T10:51:59.091Z,18.55
2023-04-21T10:54:28.013Z,18.01
2023-04-21T10:56:56.311Z,18.18
2023-04-21T10:59:24.440Z,18.61
2023-04-21T11:01:53.062Z,19.29
2023-04-21T11:04:22.749Z,19.47
2023-04-21T11:07:11.796Z,19.49
2023-04-21T11:09:41.155Z,18.96
2023-04-21T11:12:10.797Z,18.67
2023-04-21T11:14:39.697Z,18.59
2023-04-21T11:17:18.495Z,18.89
2023-04-21T11:19:47.633Z,18.35
2023-04-21T11:22:17.031Z,18.64
2023-04-21T11:24:51.286Z,19.23
2023-04-21T11:27:18.246Z,19.67
2023-04-21T11:29:46.534Z,19.40
2023-04-21T11:32:14.306Z,19.93
2023-04-21T11:34:41.786Z,19.71
2023-04-21T11:37:10.827Z,19.28
2023-04-21T11:39:41.170Z,18.22
2023-04-21T11:42:08.309Z,18.43
2023-04-21T11:44:43.239Z,18.22
2023-04-21T11:47:26.914Z,18.44
2023-04-21T11:49:56.342Z,17.61
2023-04-21T11:52:36.100Z,17.73
2023-04-21T11:55:12.278Z,18.00
2023-04-21T11:57:41.015Z,18.11
2023-04-21T12:00:12.000Z,18.06
2023-04-21T12:02:40.022Z,18.14
2023-04-21T12:05:09.814Z,18.03
2023-04-21T12:07:45.088Z,18.61
2023-04-21T12:10:13.571Z,18.81
2023-04-21T12:12:42.253Z,18.52
2023-04-21T12:15:11.961Z,18.66
2023-04-21T12:17:47.008Z,18.51
2023-04-21T12:20:23.608Z,18.65
2023-04-21T12:22:51.190Z,18.09
2023-04-21T12:25:18.556Z,17.76
2023-04-21T12:27:58.779Z,18.00
2023-04-21T12:30:25.903Z,18.48
2023-04-21T12:32:54.557Z,18.54
2023-04-21T12:35:22.881Z,18.48
2023-04-21T12:37:49.935Z,18.31
2023-04-21T12:40:17.123Z,18.19
2023-04-21T12:42:44.016Z,18.30
2023-04-21T12:45:11.546Z,18.82
2023-04-21T12:47:39.404Z,19.38
2023-04-21T12:50:07.490Z,19.48
2023-04-21T12:52:34.929Z,18.57
2023-04-21T12:55:02.204Z,18.96
2023-04-21T12:57:31.981Z,18.97
2023-04-21T12:59:59.202Z,18.87
2023-04-21T13:02:26.383Z,18.61
2023-04-21T13:04:54.028Z,18.97
2023-04-21T13:07:22.709Z,19.23
2023-04-21T13:09:49.740Z,19.06
2023-04-21T13:12:17.433Z,19.00
2023-04-21T13:14:44.399Z,19.25
2023-04-21T13:17:11.751Z,19.30
2023-04-21T13:19:38.872Z,19.24
2023-04-21T13:22:05.975Z,19.31
2023-04-21T13:24:33.684Z,19.29
2023-04-21T13:27:03.961Z,19.03
2023-04-21T13:29:34.165Z,19.09
2023-04-21T13:32:02.497Z,19.16
2023-04-21T13:34:31.551Z,18.89
2023-04-21T13:36:59.250Z,18.90
2023-04-21T13:39:26.698Z,18.88
2023-04-21T13:41:54.861Z,19.12
2023-04-21T13:44:22.036Z,18.58
2023-04-21T13:46:50.697Z,18.43
2023-04-21T13:49:18.222Z,18.60
2023-04-21T13:51:52.281Z,18.71
2023-04-21T13:54:31.488Z,18.85
2023-04-21T13:56:59.050Z,19.15
2023-04-21T13:59:26.184Z,19.41
2023-04-21T14:01:53.336Z,19.50
2023-04-21T14:04:22.352Z,19.57
2023-04-21T14:06:50.893Z,19.34
2023-04-21T14:09:17.919Z,19.30
2023-04-21T14:11:44.945Z,19.66
2023-04-21T14:14:11.869Z,19.80
2023-04-21T14:16:39.219Z,20.05
2023-04-21T14:19:06.970Z,18.89
2023-04-21T14:21:34.717Z,19.70
2023-04-21T14:24:02.068Z,19.74
2023-04-21T14:26:29.152Z,19.41
2023-04-21T14:28:56.625Z,19.47
2023-04-21T14:31:23.643Z,19.56
2023-04-21T14:33:50.850Z,19.49
2023-04-21T14:36:18.188Z,19.66
2023-04-21T14:38:45.278Z,19.74
2023-04-21T14:41:13.053Z,19.55
2023-04-21T14:43:40.204Z,19.73
2023-04-21T14:46:07.474Z,19.31
2023-04-21T14:48:34.866Z,19.38
2023-04-21T14:51:02.148Z,19.51
2023-04-21T14:53:30.448Z,19.21
2023-04-21T14:55:58.290Z,18.40
2023-04-21T14:58:25.586Z,18.06
2023-04-21T15:00:52.697Z,17.60
2023-04-21T15:03:19.842Z,16.89
2023-04-21T15:05:47.067Z,17.35
2023-04-21T15:08:18.109Z,17.34
2023-04-21T15:10:56.899Z,17.44
2023-04-21T15:13:24.097Z,17.87
2023-04-21T15:15:54.255Z,17.91
2023-04-21T15:18:21.150Z,18.17
2023-04-21T15:20:48.410Z,18.48
2023-04-21T15:23:15.663Z,18.05
2023-04-21T15:25:43.224Z,18.02
2023-04-21T15:28:10.239Z,18.17
2023-04-21T15:30:37.837Z,18.14
2023-04-21T15:33:05.327Z,18.20
2023-04-21T15:35:35.536Z,17.98
2023-04-21T15:38:03.361Z,18.14
2023-04-21T15:40:30.496Z,18.30
2023-04-21T15:42:57.712Z,18.52
2023-04-21T15:45:24.773Z,18.60
2023-04-21T15:47:51.835Z,18.94
2023-04-21T15:50:18.841Z,19.38
2023-04-21T15:52:45.996Z,20.43
2023-04-21T15:55:17.562Z,19.96
2023-04-21T15:57:56.939Z,19.91
2023-04-21T16:00:24.677Z,21.08
2023-04-21T16:02:52.042Z,21.95
2023-04-21T16:05:20.035Z,22.37
2023-04-21T16:07:47.287Z,23.04
2023-04-21T16:10:17.807Z,23.89
2023-04-21T16:12:45.897Z,24.29
2023-04-21T16:15:23.882Z,24.55
2023-04-21T16:17:53.136Z,24.36
2023-04-21T16:20:20.225Z,23.81
2023-04-21T16:22:50.217Z,23.27
2023-04-21T16:25:20.142Z,23.33
2023-04-21T16:27:48.206Z,23.74
2023-04-21T16:30:15.552Z,23.00
2023-04-21T16:32:42.749Z,22.37
2023-04-21T16:35:11.430Z,21.60
2023-04-21T16:37:40.623Z,21.48
2023-04-21T16:40:08.981Z,20.76
2023-04-21T16:42:36.587Z,19.69
2023-04-21T16:45:05.895Z,18.51
2023-04-21T16:47:41.045Z,18.00
2023-04-21T16:50:10.122Z,17.41
2023-04-21T16:52:37.259Z,17.02
2023-04-21T16:55:04.602Z,16.87
2023-04-21T16:57:33.340Z,16.36
2023-04-21T17:00:01.178Z,16.30
2023-04-21T17:02:34.391Z,16.16
2023-04-21T17:05:01.575Z,15.76
2023-04-21T17:07:32.257Z,15.71
2023-04-21T17:09:59.600Z,15.27
2023-04-21T17:12:26.589Z,15.25
2023-04-21T17:14:53.651Z,15.17
2023-04-21T17:17:20.648Z,15.14
2023-04-21T17:19:48.457Z,15.02
2023-04-21T17:22:15.930Z,14.93
2023-04-21T17:24:52.398Z,14.69
2023-04-21T17:27:20.907Z,14.69
2023-04-21T17:29:48.530Z,14.48
2023-04-21T17:32:15.878Z,14.39
2023-04-21T17:34:44.066Z,14.37
2023-04-21T17:37:11.600Z,14.24
2023-04-21T17:39:38.814Z,14.11
2023-04-21T17:42:05.970Z,14.09
2023-04-21T17:44:33.032Z,14.04
2023-04-21T17:47:00.062Z,13.88
2023-04-21T17:49:27.183Z,13.82
2023-04-21T17:51:54.476Z,13.79
2023-04-21T17:54:21.719Z,13.71
2023-04-21T17:56:48.716Z,13.65
2023-04-21T17:59:15.782Z,13.40
2023-04-21T18:02:01.424Z,13.40
2023-04-21T18:04:30.755Z,13.34
2023-04-21T18:06:58.978Z,13.33
2023-04-21T18:09:26.282Z,13.20
2023-04-21T18:11:53.610Z,13.20
2023-04-21T18:14:21.147Z,13.08
2023-04-21T18:16:48.250Z,13.10
2023-04-21T18:19:18.267Z,12.97
2023-04-21T18:21:47.980Z,12.93
2023-04-21T18:24:15.279Z,12.96
2023-04-21T18:26:43.684Z,12.95
2023-04-21T18:29:10.936Z,12.97
2023-04-21T18:31:38.456Z,12.98
2023-04-21T18:34:06.218Z,12.92
2023-04-21T18:36:34.409Z,12.93
2023-04-21T18:39:02.203Z,12.88
2023-04-21T18:41:29.407Z,12.94
2023-04-21T18:43:56.999Z,12.91
2023-04-21T18:46:24.232Z,12.79
2023-04-21T18:48:51.351Z,12.90
2023-04-21T18:51:18.376Z,12.88
2023-04-21T18:53:46.374Z,12.82
2023-04-21T18:56:13.341Z,12.72
2023-04-21T18:58:40.552Z,12.78
2023-04-21T19:01:08.157Z,12.71
2023-04-21T19:03:35.756Z,12.63
2023-04-21T19:06:02.988Z,12.66
2023-04-21T19:08:41.319Z,12.60
2023-04-21T19:11:10.304Z,12.53
2023-04-21T19:13:37.596Z,12.26
2023-04-21T19:16:05.434Z,12.48
2023-04-21T19:18:32.654Z,12.41
2023-04-21T19:21:00.019Z,12.17
2023-04-21T19:23:27.038Z,12.27
2023-04-21T19:25:57.465Z,12.24
2023-04-21T19:28:24.609Z,12.26
2023-04-21T19:30:51.613Z,12.15
2023-04-21T19:33:18.674Z,12.03
2023-04-21T19:35:46.227Z,12.04
2023-04-21T19:38:14.438Z,12.00
2023-04-21T19:40:44.478Z,12.01
2023-04-21T19:43:11.855Z,12.01
2023-04-21T19:45:39.135Z,11.89
2023-04-21T19:48:07.596Z,11.89
2023-04-21T19:50:35.885Z,11.80
2023-04-21T19:53:03.734Z,11.73
2023-04-21T19:55:32.210Z,11.75
2023-04-21T19:57:59.273Z,11.74
2023-04-21T20:00:26.529Z,11.74
2023-04-21T20:02:55.173Z,11.33
2023-04-21T20:05:22.370Z,11.67
2023-04-21T20:07:49.462Z,11.55
2023-04-21T20:10:16.536Z,11.54
2023-04-21T20:12:43.521Z,11.48
2023-04-21T20:15:11.986Z,11.22
2023-04-21T20:17:39.080Z,11.32
2023-04-21T20:20:07.124Z,11.29
2023-04-21T20:22:34.316Z,11.35
2023-04-21T20:25:01.299Z,11.03
2023-04-21T20:27:30.798Z,11.36
2023-04-21T20:29:57.942Z,11.32
2023-04-21T20:32:25.098Z,11.25
2023-04-21T20:34:53.458Z,11.20
2023-04-21T20:37:20.542Z,11.16
2023-04-21T20:39:47.679Z,11.11
2023-04-21T20:42:14.889Z,11.20
2023-04-21T20:44:43.146Z,11.16
2023-04-21T20:47:11.290Z,11.17
2023-04-21T20:49:39.849Z,10.90
2023-04-21T20:52:07.268Z,11.02
2023-04-21T20:54:35.001Z,10.94
2023-04-21T20:57:02.663Z,10.93
2023-04-21T20:59:29.872Z,10.79
2023-04-21T21:01:56.854Z,10.80
2023-04-21T21:04:24.004Z,10.76
2023-04-21T21:06:51.253Z,10.75
2023-04-21T21:09:19.204Z,10.80
2023-04-21T21:11:46.697Z,10.91
2023-04-21T21:14:14.181Z,10.91
2023-04-21T21:16:41.825Z,11.06
2023-04-21T21:19:09.390Z,10.86
2023-04-21T21:21:36.581Z,10.61
2023-04-21T21:24:03.876Z,10.66
2023-04-21T21:26:31.016Z,10.73
2023-04-21T21:28:58.253Z,10.64
2023-04-21T21:31:25.718Z,10.59
2023-04-21T21:33:52.784Z,10.50
2023-04-21T21:36:20.102Z,10.45
2023-04-21T21:38:47.035Z,10.62
2023-04-21T21:41:14.714Z,10.61
2023-04-21T21:43:41.697Z,10.48
2023-04-21T21:46:09.102Z,10.46
2023-04-21T21:48:36.231Z,10.58
2023-04-21T21:51:04.375Z,10.47
2023-04-21T21:53:32.606Z,10.54
2023-04-21T21:56:00.199Z,10.57
2023-04-21T21:58:27.400Z,10.52
2023-04-21T22:00:54.863Z,10.49
2023-04-21T22:03:22.665Z,10.56
2023-04-21T22:05:49.890Z,10.46
2023-04-21T22:08:16.906Z,10.44
2023-04-21T22:10:43.872Z,10.26
2023-04-21T22:13:12.043Z,10.41
2023-04-21T22:15:39.358Z,10.39
2023-04-21T22:18:08.046Z,10.38
2023-04-21T22:20:36.100Z,10.23
2023-04-21T22:23:04.078Z,10.23
2023-04-21T22:25:31.076Z,10.15
2023-04-21T22:27:59.164Z,10.15
2023-04-21T22:30:26.337Z,9.86
2023-04-21T22:32:53.371Z,9.62
2023-04-21T22:35:20.980Z,10.08
2023-04-21T22:37:48.073Z,10.07
2023-04-21T22:40:15.115Z,10.05
2023-04-21T22:42:42.348Z,10.09
2023-04-21T22:45:10.064Z,9.95
2023-04-21T22:47:37.101Z,9.98
2023-04-21T22:50:04.697Z,10.04
2023-04-21T22:52:31.908Z,10.12
2023-04-21T22:54:58.856Z,10.11
2023-04-21T22:57:26.160Z,10.18
2023-04-21T22:59:53.168Z,10.25
2023-04-21T23:02:20.315Z,10.02
2023-04-21T23:04:47.277Z,10.01
2023-04-21T23:07:14.319Z,10.24
2023-04-21T23:09:41.405Z,10.28
2023-04-21T23:12:08.637Z,10.17
2023-04-21T23:14:35.687Z,10.11
2023-04-21T23:17:03.055Z,10.15
2023-04-21T23:19:30.134Z,10.08
2023-04-21T23:21:58.694Z,9.90
2023-04-21T23:24:25.704Z,9.68
2023-04-21T23:26:52.689Z,9.86
2023-04-21T23:29:19.826Z,9.80
2023-04-21T23:31:46.917Z,9.40
2023-04-21T23:34:14.973Z,9.70
2023-04-21T23:36:42.020Z,9.61
2023-04-21T23:39:09.972Z,9.54
2023-04-21T23:41:37.450Z,9.46
2023-04-21T23:44:04.448Z,9.46
2023-04-21T23:46:31.797Z,9.42
2023-04-21T23:48:58.974Z,9.39
2023-04-21T23:51:27.055Z,9.23
2023-04-21T23:53:54.120Z,9.31
2023-04-21T23:56:21.287Z,9.26
2023-04-21T23:58:48.242Z,9.22
